createdAt,value
2023-04-28T00:00:33.076Z,28.26
2023-04-28T00:03:01.410Z,27.75
2023-04-28T00:05:29.366Z,28.18
2023-04-28T00:07:57.450Z,28.02
2023-04-28T00:10:25.389Z,28.40
2023-04-28T00:12:53.341Z,28.44
2023-04-28T00:15:21.725Z,27.85
2023-04-28T00:17:51.059Z,28.71
2023-04-28T00:20:22.176Z,28.11
2023-04-28T00:22:50.668Z,28.27
2023-04-28T00:25:18.848Z,27.65
2023-04-28T00:27:46.946Z,27.45
2023-04-28T00:30:15.757Z,28.03
2023-04-28T00:32:43.800Z,28.89
2023-04-28T00:35:13.197Z,28.11
2023-04-28T00:37:41.145Z,28.38
2023-04-28T00:40:11.055Z,28.07
2023-04-28T00:42:38.933Z,28.26
2023-04-28T00:45:08.210Z,29.71
2023-04-28T00:47:36.177Z,28.60
2023-04-28T00:50:06.476Z,29.07
2023-04-28T00:52:35.716Z,28.23
2023-04-28T00:55:03.568Z,29.37
2023-04-28T00:57:32.454Z,28.91
2023-04-28T01:00:01.431Z,28.48
2023-04-28T01:02:30.791Z,28.83
2023-04-28T01:05:01.592Z,27.96
2023-04-28T01:07:30.378Z,28.18
2023-04-28T01:09:59.994Z,28.39
2023-04-28T01:12:32.513Z,28.45
2023-04-28T01:15:01.571Z,29.16
2023-04-28T01:17:30.423Z,28.00
2023-04-28T01:19:58.299Z,27.73
2023-04-28T01:22:26.342Z,27.88
2023-04-28T01:24:55.632Z,27.70
2023-04-28T01:27:25.028Z,28.01
2023-04-28T01:29:53.259Z,26.24
2023-04-28T01:32:21.084Z,26.92
2023-04-28T01:34:49.235Z,27.86
2023-04-28T01:37:17.488Z,28.76
2023-04-28T01:39:45.499Z,27.97
2023-04-28T01:42:15.099Z,28.61
2023-04-28T01:44:43.229Z,28.04
2023-04-28T01:47:12.128Z,28.53
2023-04-28T01:49:40.143Z,28.33
2023-04-28T01:52:09.163Z,28.73
2023-04-28T01:54:37.561Z,28.10
2023-04-28T01:57:06.103Z,28.55
2023-04-28T01:59:35.926Z,27.71
2023-04-28T02:02:03.918Z,28.20
2023-04-28T02:04:32.100Z,29.03
2023-04-28T02:07:00.233Z,27.79
2023-04-28T02:09:28.107Z,29.19
2023-04-28T02:11:59.965Z,30.64
2023-04-28T02:14:28.168Z,29.78
2023-04-28T02:16:57.767Z,30.29
2023-04-28T02:19:25.618Z,29.91
2023-04-28T02:21:53.716Z,30.29
2023-04-28T02:24:21.545Z,29.65
2023-04-28T02:26:49.440Z,29.85
2023-04-28T02:29:17.399Z,29.66
2023-04-28T02:31:45.316Z,29.09
2023-04-28T02:34:15.684Z,29.29
2023-04-28T02:36:43.784Z,28.93
2023-04-28T02:39:11.784Z,27.97
2023-04-28T02:41:39.676Z,28.27
2023-04-28T02:44:07.671Z,27.94
2023-04-28T02:46:36.009Z,27.56
2023-04-28T02:49:05.479Z,26.78
2023-04-28T02:51:34.938Z,27.89
2023-04-28T02:54:02.875Z,29.42
2023-04-28T02:56:31.570Z,29.34
2023-04-28T02:59:00.326Z,29.52
2023-04-28T03:01:29.490Z,30.98
2023-04-28T03:03:57.726Z,30.38
2023-04-28T03:06:26.536Z,29.08
2023-04-28T03:08:55.801Z,28.82
2023-04-28T03:11:24.168Z,29.50
2023-04-28T03:13:52.015Z,29.41
2023-04-28T03:16:19.872Z,29.68
2023-04-28T03:18:47.996Z,29.03
2023-04-28T03:21:15.893Z,29.00
2023-04-28T03:23:43.865Z,29.38
2023-04-28T03:26:13.179Z,28.50
2023-04-28T03:28:41.526Z,28.80
2023-04-28T03:31:09.306Z,29.48
2023-04-28T03:33:37.349Z,29.72
2023-04-28T03:36:05.719Z,30.07
2023-04-28T03:38:33.653Z,29.13
2023-04-28T03:41:01.732Z,29.13
2023-04-28T03:43:35.521Z,30.66
2023-04-28T03:46:29.691Z,29.51
2023-04-28T03:48:58.466Z,29.05
2023-04-28T03:51:27.865Z,30.59
2023-04-28T03:53:56.466Z,31.80
2023-04-28T03:56:24.744Z,30.38
2023-04-28T03:58:54.074Z,28.82
2023-04-28T04:01:22.302Z,29.78
2023-04-28T04:03:51.526Z,30.68
2023-04-28T04:06:19.971Z,31.10
2023-04-28T04:08:48.074Z,29.92
2023-04-28T04:11:17.028Z,31.43
2023-04-28T04:13:44.888Z,30.04
2023-04-28T04:16:17.893Z,31.22
2023-04-28T04:18:45.824Z,30.21
2023-04-28T04:21:20.077Z,29.26
2023-04-28T04:23:50.077Z,29.77
2023-04-28T04:26:17.943Z,28.77
2023-04-28T04:28:46.101Z,30.15
2023-04-28T04:31:14.223Z,29.18
2023-04-28T04:33:43.661Z,29.92
2023-04-28T04:36:12.229Z,30.45
2023-04-28T04:38:40.554Z,29.96
2023-04-28T04:41:17.072Z,31.30
2023-04-28T04:43:45.251Z,29.14
2023-04-28T04:46:13.354Z,29.71
2023-04-28T04:48:43.177Z,29.72
2023-04-28T04:51:11.400Z,30.64
2023-04-28T04:53:39.496Z,29.87
2023-04-28T04:56:08.137Z,30.51
2023-04-28T04:58:38.203Z,29.90
2023-04-28T05:01:30.631Z,30.76
2023-04-28T05:04:00.702Z,29.39
2023-04-28T05:06:28.791Z,30.58
2023-04-28T05:08:58.338Z,30.75
2023-04-28T05:11:26.823Z,30.24
2023-04-28T05:13:54.774Z,29.35
2023-04-28T05:16:23.034Z,30.01
2023-04-28T05:19:11.710Z,29.81
2023-04-28T05:21:39.659Z,30.35
2023-04-28T05:24:08.085Z,31.35
2023-04-28T05:26:37.383Z,30.08
2023-04-28T05:29:09.577Z,30.40
2023-04-28T05:31:38.030Z,29.95
2023-04-28T05:34:06.305Z,28.77
2023-04-28T05:36:36.121Z,28.87
2023-04-28T05:39:05.173Z,28.24
2023-04-28T05:41:33.119Z,29.88
2023-04-28T05:44:00.982Z,29.93
2023-04-28T05:46:31.085Z,29.87
2023-04-28T05:49:00.642Z,29.56
2023-04-28T05:51:35.029Z,29.38
2023-04-28T05:54:03.601Z,28.93
2023-04-28T05:56:34.096Z,30.06
2023-04-28T05:59:04.329Z,29.37
2023-04-28T06:01:32.610Z,30.59
2023-04-28T06:04:01.405Z,29.39
2023-04-28T06:06:29.872Z,28.98
2023-04-28T06:08:59.569Z,28.84
2023-04-28T06:11:27.536Z,28.63
2023-04-28T06:13:55.530Z,28.13
2023-04-28T06:16:23.688Z,27.10
2023-04-28T06:18:52.161Z,26.74
2023-04-28T06:21:24.190Z,26.00
2023-04-28T06:23:52.192Z,27.68
2023-04-28T06:26:21.844Z,26.95
2023-04-28T06:28:50.705Z,27.46
2023-04-28T06:31:18.839Z,27.85
2023-04-28T06:33:46.832Z,28.72
2023-04-28T06:36:16.918Z,27.73
2023-04-28T06:38:44.936Z,26.83
2023-04-28T06:41:13.310Z,26.92
2023-04-28T06:43:45.778Z,27.40
2023-04-28T06:46:22.315Z,26.15
2023-04-28T06:48:50.890Z,27.00
2023-04-28T06:51:18.763Z,26.27
2023-04-28T06:53:46.743Z,26.56
2023-04-28T06:56:15.555Z,26.41
2023-04-28T06:58:45.084Z,25.25
2023-04-28T07:01:13.165Z,26.69
2023-04-28T07:03:41.386Z,27.88
2023-04-28T07:06:09.793Z,26.38
2023-04-28T07:08:37.972Z,25.69
2023-04-28T07:11:06.428Z,27.28
2023-04-28T07:13:34.576Z,26.18
2023-04-28T07:16:04.109Z,26.62
2023-04-28T07:18:32.152Z,27.51
2023-04-28T07:21:00.160Z,27.90
2023-04-28T07:23:28.025Z,26.21
2023-04-28T07:25:55.867Z,25.90
2023-04-28T07:28:23.783Z,25.93
2023-04-28T07:30:51.927Z,25.43
2023-04-28T07:33:21.381Z,24.91
2023-04-28T07:35:54.502Z,24.47
2023-04-28T07:38:34.762Z,26.11
2023-04-28T07:41:05.729Z,26.09
2023-04-28T07:43:35.642Z,25.69
2023-04-28T07:46:03.575Z,24.60
2023-04-28T07:48:33.194Z,24.16
2023-04-28T07:51:01.071Z,24.67
2023-04-28T07:53:29.054Z,25.04
2023-04-28T07:55:57.011Z,24.64
2023-04-28T07:58:24.856Z,23.95
2023-04-28T08:00:52.759Z,24.52
2023-04-28T08:03:21.513Z,24.71
2023-04-28T08:05:51.185Z,24.47
2023-04-28T08:08:19.411Z,23.65
2023-04-28T08:10:47.430Z,24.28
2023-04-28T08:13:16.632Z,22.99
2023-04-28T08:15:44.755Z,23.66
2023-04-28T08:18:12.892Z,23.00
2023-04-28T08:20:41.576Z,22.88
2023-04-28T08:23:11.609Z,23.23
2023-04-28T08:25:39.605Z,23.23
2023-04-28T08:28:08.714Z,23.01
2023-04-28T08:30:38.727Z,23.31
2023-04-28T08:33:07.714Z,23.26
2023-04-28T08:35:36.017Z,23.18
2023-04-28T08:38:03.981Z,23.54
2023-04-28T08:40:33.808Z,24.26
2023-04-28T08:43:01.934Z,24.39
2023-04-28T08:45:32.794Z,23.37
2023-04-28T08:48:02.200Z,22.67
2023-04-28T08:50:32.838Z,24.18
2023-04-28T08:53:03.693Z,23.69
2023-04-28T08:55:33.537Z,22.91
2023-04-28T08:58:03.792Z,21.54
2023-04-28T09:00:32.528Z,22.36
2023-04-28T09:03:00.781Z,21.56
2023-04-28T09:05:28.768Z,22.97
2023-04-28T09:07:57.002Z,22.66
2023-04-28T09:10:26.439Z,22.16
2023-04-28T09:12:57.985Z,23.97
2023-04-28T09:15:33.255Z,22.56
2023-04-28T09:18:03.063Z,23.79
2023-04-28T09:20:32.500Z,23.21
2023-04-28T09:23:14.849Z,24.26
2023-04-28T09:25:56.431Z,24.72
2023-04-28T09:28:26.150Z,23.80
2023-04-28T09:30:54.938Z,22.89
2023-04-28T09:33:23.271Z,24.48
2023-04-28T09:35:51.552Z,25.63
2023-04-28T09:38:20.885Z,24.01
2023-04-28T09:40:54.055Z,24.47
2023-04-28T09:43:27.857Z,24.66
2023-04-28T09:45:56.384Z,23.94
2023-04-28T09:48:32.440Z,22.64
2023-04-28T09:51:01.444Z,23.66
2023-04-28T09:53:30.555Z,23.61
2023-04-28T09:56:00.017Z,23.25
2023-04-28T09:58:32.462Z,23.96
2023-04-28T10:01:01.798Z,23.97
2023-04-28T10:03:31.644Z,23.28
2023-04-28T10:06:01.022Z,22.44
2023-04-28T10:08:29.568Z,22.60
2023-04-28T10:10:59.133Z,23.58
2023-04-28T10:13:29.365Z,25.38
2023-04-28T10:15:58.604Z,25.39
2023-04-28T10:18:26.866Z,26.52
2023-04-28T10:20:59.394Z,25.28
2023-04-28T10:24:08.871Z,23.97
2023-04-28T10:27:05.751Z,24.17
2023-04-28T10:29:36.034Z,23.63
2023-04-28T10:32:20.961Z,22.91
2023-04-28T10:34:49.474Z,22.45
2023-04-28T10:37:19.073Z,23.23
2023-04-28T10:40:32.801Z,24.06
2023-04-28T10:43:01.089Z,25.36
2023-04-28T10:46:06.209Z,22.78
2023-04-28T10:48:57.494Z,22.53
2023-04-28T10:51:30.154Z,21.87
2023-04-28T10:54:19.099Z,23.15
2023-04-28T10:57:22.843Z,23.42
2023-04-28T10:59:51.390Z,23.81
2023-04-28T11:02:46.128Z,23.88
2023-04-28T11:05:19.326Z,24.57
2023-04-28T11:08:31.236Z,22.29
2023-04-28T11:11:25.905Z,23.15
2023-04-28T11:13:55.572Z,23.37
2023-04-28T11:16:25.837Z,23.94
2023-04-28T11:19:07.172Z,23.34
2023-04-28T11:21:35.241Z,25.44
2023-04-28T11:24:10.590Z,24.02
2023-04-28T11:26:39.979Z,24.15
2023-04-28T11:29:08.688Z,22.54
2023-04-28T11:31:36.644Z,24.07
2023-04-28T11:34:08.141Z,23.90
2023-04-28T11:36:37.480Z,23.55
2023-04-28T11:39:07.526Z,23.47
2023-04-28T11:41:36.058Z,23.45
2023-04-28T11:44:11.783Z,23.24
2023-04-28T11:46:46.901Z,22.90
2023-04-28T11:49:16.300Z,22.87
2023-04-28T11:51:45.968Z,24.51
2023-04-28T11:54:15.041Z,23.83
2023-04-28T11:56:44.920Z,23.91
2023-04-28T11:59:14.163Z,24.57
2023-04-28T12:01:50.672Z,24.31
2023-04-28T12:04:31.909Z,24.12
2023-04-28T12:07:02.196Z,23.02
2023-04-28T12:09:30.596Z,25.91
2023-04-28T12:11:59.776Z,26.14
2023-04-28T12:14:27.716Z,27.00
2023-04-28T12:16:56.912Z,26.76
2023-04-28T12:19:24.776Z,26.83
2023-04-28T12:22:05.894Z,29.08
2023-04-28T12:24:35.653Z,28.96
2023-04-28T12:27:17.686Z,28.81
2023-04-28T12:29:47.265Z,28.66
2023-04-28T12:32:16.024Z,28.45
2023-04-28T12:34:46.053Z,28.72
2023-04-28T12:37:15.322Z,28.70
2023-04-28T12:39:44.132Z,28.73
2023-04-28T12:42:12.480Z,27.01
2023-04-28T12:44:40.793Z,29.02
2023-04-28T12:47:10.936Z,27.37
2023-04-28T12:49:39.495Z,27.93
2023-04-28T12:52:07.780Z,28.07
2023-04-28T12:54:37.271Z,30.94
2023-04-28T12:57:05.730Z,31.62
2023-04-28T12:59:34.642Z,30.09
2023-04-28T13:02:02.866Z,31.33
2023-04-28T13:04:31.388Z,30.88
2023-04-28T13:07:00.063Z,29.70
2023-04-28T13:09:28.424Z,29.64
2023-04-28T13:11:58.735Z,30.03
2023-04-28T13:14:27.884Z,29.73
2023-04-28T13:16:56.006Z,30.91
2023-04-28T13:19:24.078Z,32.14
2023-04-28T13:21:52.305Z,31.04
2023-04-28T13:24:20.098Z,31.93
2023-04-28T13:26:48.078Z,29.86
2023-04-28T13:29:18.101Z,30.89
2023-04-28T13:31:46.316Z,30.68
2023-04-28T13:34:16.401Z,30.36
2023-04-28T13:36:44.717Z,30.21
2023-04-28T13:39:14.695Z,29.50
2023-04-28T13:41:43.164Z,30.56
2023-04-28T13:44:11.378Z,30.95
2023-04-28T13:46:40.662Z,30.96
2023-04-28T13:49:08.570Z,31.71
2023-04-28T13:51:36.743Z,32.92
2023-04-28T13:54:05.450Z,31.34
2023-04-28T13:56:33.692Z,30.84
2023-04-28T13:59:01.755Z,31.71
2023-04-28T14:01:29.863Z,33.53
2023-04-28T14:03:59.475Z,33.25
2023-04-28T14:06:28.854Z,33.76
2023-04-28T14:08:56.944Z,32.78
2023-04-28T14:11:25.062Z,32.58
2023-04-28T14:13:53.506Z,32.73
2023-04-28T14:16:21.605Z,33.36
2023-04-28T14:18:49.840Z,32.77
2023-04-28T14:21:19.059Z,33.17
2023-04-28T14:23:46.941Z,32.57
2023-04-28T14:26:14.893Z,32.53
2023-04-28T14:28:43.012Z,33.27
2023-04-28T14:31:10.930Z,33.22
2023-04-28T14:33:38.952Z,32.65
2023-04-28T14:36:07.040Z,32.33
2023-04-28T14:38:38.283Z,34.00
2023-04-28T14:41:07.614Z,33.33
2023-04-28T14:43:35.676Z,32.44
2023-04-28T14:46:04.050Z,33.14
2023-04-28T14:48:33.472Z,32.35
2023-04-28T14:51:01.515Z,32.89
2023-04-28T14:53:30.331Z,32.27
2023-04-28T14:56:16.837Z,31.47
2023-04-28T14:58:45.530Z,30.94
2023-04-28T15:01:13.495Z,30.63
2023-04-28T15:03:41.949Z,29.29
2023-04-28T15:06:11.551Z,30.14
2023-04-28T15:08:40.356Z,31.72
2023-04-28T15:11:10.161Z,30.97
2023-04-28T15:13:38.837Z,30.04
2023-04-28T15:16:07.773Z,32.34
2023-04-28T15:18:35.605Z,31.99
2023-04-28T15:21:03.517Z,33.33
2023-04-28T15:23:31.535Z,31.68
2023-04-28T15:26:02.464Z,30.82
2023-04-28T15:28:32.000Z,29.75
2023-04-28T15:31:00.024Z,30.95
2023-04-28T15:33:28.259Z,29.81
2023-04-28T15:35:56.459Z,26.00
2023-04-28T15:38:24.350Z,24.66
2023-04-28T15:40:52.230Z,25.50
2023-04-28T15:43:20.173Z,27.39
2023-04-28T15:45:49.484Z,29.30
2023-04-28T15:48:17.374Z,30.76
2023-04-28T15:50:45.256Z,31.26
2023-04-28T15:53:13.326Z,31.11
2023-04-28T15:55:41.330Z,31.74
2023-04-28T15:58:10.905Z,33.08
2023-04-28T16:00:40.667Z,33.82
2023-04-28T16:03:10.391Z,33.98
2023-04-28T16:05:39.291Z,33.43
2023-04-28T16:08:07.265Z,33.79
2023-04-28T16:10:35.215Z,33.04
2023-04-28T16:13:05.159Z,35.10
2023-04-28T16:15:34.314Z,34.02
2023-04-28T16:18:02.396Z,33.45
2023-04-28T16:20:31.817Z,36.97
2023-04-28T16:22:59.628Z,38.29
2023-04-28T16:25:27.669Z,37.01
2023-04-28T16:27:55.760Z,37.25
2023-04-28T16:30:23.961Z,38.56
2023-04-28T16:32:52.945Z,36.82
2023-04-28T16:35:21.718Z,35.39
2023-04-28T16:37:51.057Z,36.68
2023-04-28T16:40:18.983Z,38.05
2023-04-28T16:42:46.839Z,38.86
2023-04-28T16:45:15.598Z,36.27
2023-04-28T16:47:44.146Z,37.95
2023-04-28T16:50:14.538Z,38.86
2023-04-28T16:52:42.752Z,39.79
2023-04-28T16:55:12.473Z,38.99
2023-04-28T16:57:40.509Z,39.05
2023-04-28T17:00:10.047Z,40.20
2023-04-28T17:02:38.307Z,38.86
2023-04-28T17:05:07.417Z,41.09
2023-04-28T17:07:35.555Z,39.90
2023-04-28T17:10:03.852Z,43.49
2023-04-28T17:12:33.093Z,42.81
2023-04-28T17:15:01.393Z,43.78
2023-04-28T17:17:29.843Z,40.69
2023-04-28T17:20:00.218Z,39.75
2023-04-28T17:22:28.968Z,37.52
2023-04-28T17:24:57.333Z,39.75
2023-04-28T17:27:25.429Z,38.96
2023-04-28T17:29:54.914Z,38.48
2023-04-28T17:32:22.890Z,38.95
2023-04-28T17:34:51.344Z,39.58
2023-04-28T17:37:19.393Z,40.75
2023-04-28T17:39:47.225Z,40.63
2023-04-28T17:42:15.389Z,42.59
2023-04-28T17:44:43.553Z,40.87
2023-04-28T17:47:15.150Z,42.14
2023-04-28T17:49:44.652Z,40.79
2023-04-28T17:52:12.672Z,42.94
2023-04-28T17:54:40.552Z,40.38
2023-04-28T17:57:08.487Z,40.50
2023-04-28T17:59:36.389Z,41.85
2023-04-28T18:02:05.348Z,41.55
2023-04-28T18:04:36.620Z,40.76
2023-04-28T18:07:04.770Z,41.58
2023-04-28T18:09:32.746Z,41.21
2023-04-28T18:12:03.006Z,41.04
2023-04-28T18:14:33.850Z,40.73
2023-04-28T18:17:05.272Z,40.00
2023-04-28T18:19:34.487Z,40.61
2023-04-28T18:22:02.458Z,39.85
2023-04-28T18:24:33.348Z,41.45
2023-04-28T18:27:02.170Z,42.08
2023-04-28T18:29:30.598Z,39.63
2023-04-28T18:31:58.506Z,40.07
2023-04-28T18:34:27.322Z,40.32
2023-04-28T18:36:56.605Z,41.62
2023-04-28T18:39:24.619Z,41.74
2023-04-28T18:41:52.468Z,39.70
2023-04-28T18:44:20.460Z,38.74
2023-04-28T18:46:48.378Z,38.04
2023-04-28T18:49:16.341Z,39.72
2023-04-28T18:51:44.920Z,39.87
2023-04-28T18:54:16.328Z,40.53
2023-04-28T18:56:44.458Z,42.13
2023-04-28T18:59:12.668Z,41.91
2023-04-28T19:01:40.718Z,39.58
2023-04-28T19:04:09.520Z,40.15
2023-04-28T19:06:37.774Z,41.63
2023-04-28T19:09:06.042Z,43.44
2023-04-28T19:11:35.391Z,41.62
2023-04-28T19:14:03.368Z,41.29
2023-04-28T19:16:31.412Z,40.11
2023-04-28T19:18:59.390Z,39.46
2023-04-28T19:21:28.249Z,38.99
2023-04-28T19:23:57.275Z,65.17
2023-04-28T19:26:30.088Z,63.83
2023-04-28T19:29:12.725Z,59.60
2023-04-28T19:31:42.828Z,59.95
2023-04-28T19:34:11.530Z,59.97
2023-04-28T19:36:39.945Z,58.16
2023-04-28T19:39:08.279Z,54.12
2023-04-28T19:41:38.855Z,52.10
2023-04-28T19:44:09.477Z,53.04
2023-04-28T19:46:38.677Z,55.04
2023-04-28T19:49:07.616Z,56.31
2023-04-28T19:51:36.722Z,54.76
2023-04-28T19:54:08.615Z,54.07
2023-04-28T19:56:37.783Z,57.68
2023-04-28T19:59:06.656Z,56.61
2023-04-28T20:01:42.269Z,59.46
2023-04-28T20:04:13.376Z,58.93
2023-04-28T20:06:47.843Z,60.90
2023-04-28T20:09:19.169Z,61.75
2023-04-28T20:11:50.907Z,62.50
2023-04-28T20:14:22.020Z,61.18
2023-04-28T20:17:01.856Z,63.57
2023-04-28T20:19:30.815Z,61.09
2023-04-28T20:22:11.998Z,61.14
2023-04-28T20:24:46.886Z,59.85
2023-04-28T20:27:19.822Z,59.54
2023-04-28T20:29:52.919Z,58.19
2023-04-28T20:32:36.358Z,57.38
2023-04-28T20:35:06.444Z,57.87
2023-04-28T20:37:37.550Z,56.74
2023-04-28T20:40:10.930Z,57.17
2023-04-28T20:42:40.252Z,56.30
2023-04-28T20:45:20.306Z,59.41
2023-04-28T20:47:54.560Z,58.33
2023-04-28T20:50:27.001Z,58.16
2023-04-28T20:53:00.612Z,58.67
2023-04-28T20:55:34.309Z,58.70
2023-04-28T20:58:03.524Z,60.52
2023-04-28T21:00:36.914Z,61.12
2023-04-28T21:03:08.426Z,59.22
2023-04-28T21:05:38.397Z,60.42
2023-04-28T21:08:08.213Z,60.32
2023-04-28T21:10:46.664Z,58.50
2023-04-28T21:13:30.146Z,61.22
2023-04-28T21:16:09.552Z,59.56
2023-04-28T21:18:53.115Z,58.79
2023-04-28T21:21:40.122Z,59.79
2023-04-28T21:24:13.972Z,59.71
2023-04-28T21:26:48.138Z,58.65
2023-04-28T21:29:22.274Z,59.56
2023-04-28T21:31:55.801Z,61.79
2023-04-28T21:34:48.410Z,62.46
2023-04-28T21:37:20.580Z,61.58
2023-04-28T21:39:52.183Z,62.07
2023-04-28T21:42:27.480Z,59.62
2023-04-28T21:45:03.671Z,61.34
2023-04-28T21:47:34.386Z,59.33
2023-04-28T21:50:11.138Z,60.60
2023-04-28T21:52:43.629Z,61.72
2023-04-28T21:55:19.119Z,60.28
2023-04-28T21:57:49.798Z,60.79
2023-04-28T22:00:23.418Z,59.14
2023-04-28T22:03:11.259Z,57.86
2023-04-28T22:05:46.121Z,60.47
2023-04-28T22:08:21.179Z,60.62
2023-04-28T22:11:01.462Z,59.27
2023-04-28T22:13:37.885Z,58.93
2023-04-28T22:16:12.183Z,60.45
2023-04-28T22:18:41.379Z,57.32
2023-04-28T22:21:13.728Z,61.76
2023-04-28T22:23:43.121Z,58.84
2023-04-28T22:26:11.986Z,56.45
2023-04-28T22:28:43.440Z,58.38
2023-04-28T22:31:16.102Z,58.25
2023-04-28T22:33:50.987Z,59.25
2023-04-28T22:36:26.062Z,59.74
2023-04-28T22:39:02.496Z,56.78
2023-04-28T22:41:44.416Z,59.89
2023-04-28T22:44:20.701Z,58.54
2023-04-28T22:46:56.628Z,59.75
2023-04-28T22:49:32.212Z,58.16
2023-04-28T22:52:07.762Z,59.32
2023-04-28T22:54:37.415Z,60.50
2023-04-28T22:57:06.960Z,58.17
2023-04-28T22:59:37.453Z,60.69
2023-04-28T23:02:06.372Z,57.27
2023-04-28T23:04:38.349Z,58.12
2023-04-28T23:07:10.956Z,59.94
2023-04-28T23:09:43.594Z,57.42
2023-04-28T23:12:17.686Z,55.86
2023-04-28T23:14:47.152Z,58.16
2023-04-28T23:17:16.498Z,59.63
2023-04-28T23:19:45.162Z,57.62
2023-04-28T23:22:15.868Z,58.72
2023-04-28T23:24:44.962Z,58.61
2023-04-28T23:27:13.740Z,60.81
2023-04-28T23:29:43.144Z,58.68
2023-04-28T23:32:12.957Z,56.93
2023-04-28T23:34:43.197Z,55.16
2023-04-28T23:37:12.331Z,56.88
2023-04-28T23:39:42.788Z,59.91
2023-04-28T23:42:12.085Z,58.97
2023-04-28T23:44:41.399Z,59.45
2023-04-28T23:47:10.317Z,60.24
2023-04-28T23:49:38.865Z,57.12
2023-04-28T23:52:08.091Z,57.61
2023-04-28T23:54:36.676Z,56.68
2023-04-28T23:57:07.760Z,57.85
2023-04-28T23:59:36.376Z,57.26
